• Join FlightAware (Why Join?)
  • Login
  • US Flag 
07:12AM EDT


 

Airport Tracker/Info


-or-


 

Live Flight TrackerFlight Track Log ✈ THY626 ✈ 01-Jul-2013 ✈ DNMM / LOS - LTBA / IST

Flight Track Log - Related Links

Times and Time Zones

All times are in EDT time to prevent confusion due to time zone crossing. See the THY626 flight status page for this flight to view local times or setup timezone preferences in your user account.

Time Position Orientation Groundspeed Altitude Reporting Facility
EDT Latitude Longitude Course Direction KTS MPH feet Rate Location/Type
06:01PM 8.1452 4.2193 30° Northeast  Level Estimated
06:02PM 8.2497 4.2794 30° Northeast  Level Estimated
06:03PM 8.3541 4.3396 30° Northeast  Level Estimated
06:04PM 8.4586 4.3998 30° Northeast  Level Estimated
06:05PM 8.5630 4.4600 30° Northeast  Level Estimated
06:06PM 8.6674 4.5202 30° Northeast  Level Estimated
06:07PM 8.7718 4.5805 30° Northeast  Level Estimated
06:08PM 8.8762 4.6408 30° Northeast  Level Estimated
06:09PM 8.9806 4.7011 30° Northeast  Level Estimated
06:10PM 9.0850 4.7615 30° Northeast  Level Estimated
06:11PM 9.1894 4.8219 30° Northeast  Level Estimated
06:12PM 9.2937 4.8824 30° Northeast  Level Estimated
06:13PM 9.3981 4.9429 30° Northeast  Level Estimated
06:14PM 9.5024 5.0034 30° Northeast  Level Estimated
06:15PM 9.6067 5.0640 30° Northeast  Level Estimated
06:16PM 9.7111 5.1246 30° Northeast  Level Estimated
06:17PM 9.8154 5.1852 30° Northeast  Level Estimated
06:18PM 9.9197 5.2459 30° Northeast  Level Estimated
06:19PM 10.0240 5.3066 30° Northeast  Level Estimated
06:20PM 10.1282 5.3673 30° Northeast  Level Estimated
06:21PM 10.2325 5.4281 30° Northeast  Level Estimated
06:22PM 10.3368 5.4889 30° Northeast  Level Estimated
06:23PM 10.4410 5.5498 30° Northeast  Level Estimated
06:24PM 10.5452 5.6107 30° Northeast  Level Estimated
06:25PM 10.6495 5.6717 30° Northeast  Level Estimated
06:26PM 10.7537 5.7327 30° Northeast  Level Estimated
06:27PM 10.8579 5.7937 30° Northeast  Level Estimated
06:28PM 10.9620 5.8548 30° Northeast  Level Estimated
06:29PM 11.0662 5.9159 30° Northeast  Level Estimated
06:30PM 11.1704 5.9771 30° Northeast  Level Estimated
06:31PM 11.2745 6.0383 30° Northeast  Level Estimated
06:32PM 11.3786 6.0995 30° Northeast  Level Estimated
06:33PM 11.4828 6.1608 30° Northeast  Level Estimated
06:34PM 11.5869 6.2222 30° Northeast  Level Estimated
06:35PM 11.6910 6.2836 30° Northeast  Level Estimated
06:36PM 11.7951 6.3450 30° Northeast  Level Estimated
06:37PM 11.8991 6.4065 30° Northeast  Level Estimated
06:38PM 12.0032 6.4680 30° Northeast  Level Estimated
06:39PM 12.1072 6.5296 30° Northeast  Level Estimated
06:40PM 12.2113 6.5912 30° Northeast  Level Estimated
06:41PM 12.3153 6.6529 30° Northeast  Level Estimated
06:42PM 12.4193 6.7146 30° Northeast  Level Estimated
06:43PM 12.5233 6.7764 30° Northeast  Level Estimated
06:44PM 12.6272 6.8382 30° Northeast  Level Estimated
06:45PM 12.7312 6.9001 30° Northeast  Level Estimated
06:46PM 12.8351 6.9620 30° Northeast  Level Estimated
06:47PM 12.9391 7.0240 30° Northeast  Level Estimated
06:48PM 13.0430 7.0860 30° Northeast  Level Estimated
06:49PM 13.1469 7.1481 30° Northeast  Level Estimated
06:50PM 13.2508 7.2102 30° Northeast  Level Estimated
06:51PM 13.3547 7.2724 30° Northeast  Level Estimated
06:52PM 13.4585 7.3346 30° Northeast  Level Estimated
06:53PM 13.5624 7.3969 30° Northeast  Level Estimated
06:54PM 13.6662 7.4593 30° Northeast  Level Estimated
06:55PM 13.7700 7.5217 30° Northeast  Level Estimated
06:56PM 13.8738 7.5841 30° Northeast  Level Estimated
06:57PM 13.9776 7.6466 30° Northeast  Level Estimated
06:58PM 14.0813 7.7092 30° Northeast  Level Estimated
06:59PM 14.1851 7.7718 30° Northeast  Level Estimated
07:00PM 14.2888 7.8345 30° Northeast  Level Estimated
07:01PM 14.3925 7.8973 30° Northeast  Level Estimated
07:02PM 14.4962 7.9601 30° Northeast  Level Estimated
07:03PM 14.5999 8.0229 30° Northeast  Level Estimated
07:04PM 14.7036 8.0858 30° Northeast  Level Estimated
07:05PM 14.8072 8.1488 30° Northeast  Level Estimated
07:06PM 14.9108 8.2119 30° Northeast  Level Estimated
07:07PM 15.0145 8.2750 30° Northeast  Level Estimated
07:08PM 15.1180 8.3381 30° Northeast  Level Estimated
07:09PM 15.2216 8.4013 30° Northeast  Level Estimated
07:10PM 15.3252 8.4646 31° Northeast  Level Estimated
07:11PM 15.4287 8.5280 31° Northeast  Level Estimated
07:12PM 15.5314 8.5908 31° Northeast  Level Estimated
07:13PM 15.6340 8.6538 31° Northeast  Level Estimated
07:14PM 15.7366 8.7167 31° Northeast  Level Estimated
07:15PM 15.8391 8.7798 31° Northeast  Level Estimated
07:16PM 15.9417 8.8429 31° Northeast  Level Estimated
07:17PM 16.0442 8.9061 31° Northeast  Level Estimated
07:18PM 16.1467 8.9693 31° Northeast  Level Estimated
07:19PM 16.2492 9.0326 31° Northeast  Level Estimated
07:20PM 16.3517 9.0960 31° Northeast  Level Estimated
07:21PM 16.4542 9.1594 31° Northeast  Level Estimated
07:22PM 16.5566 9.2229 31° Northeast  Level Estimated
07:23PM 16.6590 9.2865 31° Northeast  Level Estimated
07:24PM 16.7614 9.3502 31° Northeast  Level Estimated
07:25PM 16.8638 9.4139 31° Northeast  Level Estimated
07:26PM 16.9662 9.4776 31° Northeast  Level Estimated
07:27PM 17.0685 9.5415 31° Northeast  Level Estimated
07:28PM 17.1708 9.6054 31° Northeast  Level Estimated
07:29PM 17.2731 9.6694 31° Northeast  Level Estimated
07:30PM 17.3754 9.7335 31° Northeast  Level Estimated
07:31PM 17.4777 9.7976 31° Northeast  Level Estimated
07:32PM 17.5799 9.8618 31° Northeast  Level Estimated
07:33PM 17.6821 9.9261 31° Northeast  Level Estimated
07:34PM 17.7843 9.9904 31° Northeast  Level Estimated
07:35PM 17.8865 10.0548 31° Northeast  Level Estimated
07:36PM 17.9887 10.1193 31° Northeast  Level Estimated
07:37PM 18.0908 10.1839 31° Northeast  Level Estimated
07:38PM 18.1929 10.2486 31° Northeast  Level Estimated
07:39PM 18.2950 10.3133 31° Northeast  Level Estimated
07:40PM 18.3971 10.3781 31° Northeast  Level Estimated
07:41PM 18.4991 10.4430 31° Northeast  Level Estimated
07:42PM 18.6012 10.5079 31° Northeast  Level Estimated
07:43PM 18.7032 10.5729 31° Northeast  Level Estimated
07:44PM 18.8052 10.6381 31° Northeast  Level Estimated
07:45PM 18.9071 10.7032 31° Northeast  Level Estimated
07:46PM 19.0091 10.7685 31° Northeast  Level Estimated
07:47PM 19.1110 10.8339 31° Northeast  Level Estimated
07:48PM 19.2129 10.8993 31° Northeast  Level Estimated
07:49PM 19.3147 10.9648 31° Northeast  Level Estimated
07:50PM 19.4166 11.0304 31° Northeast  Level Estimated
07:51PM 19.5184 11.0961 31° Northeast  Level Estimated
07:52PM 19.6202 11.1618 31° Northeast  Level Estimated
07:53PM 19.7220 11.2277 31° Northeast  Level Estimated
07:54PM 19.8237 11.2936 31° Northeast  Level Estimated
07:55PM 19.9254 11.3596 31° Northeast  Level Estimated
07:56PM 20.0271 11.4257 31° Northeast  Level Estimated
07:57PM 20.1288 11.4919 31° Northeast  Level Estimated
07:58PM 20.2305 11.5582 31° Northeast  Level Estimated
07:59PM 20.3321 11.6245 31° Northeast  Level Estimated
08:00PM 20.4337 11.6909 31° Northeast  Level Estimated
08:01PM 20.5353 11.7575 32° Northeast  Level Estimated
08:02PM 20.6368 11.8241 32° Northeast  Level Estimated
08:03PM 20.7384 11.8908 32° Northeast  Level Estimated
08:04PM 20.8399 11.9576 32° Northeast  Level Estimated
08:05PM 20.9413 12.0245 32° Northeast  Level Estimated
08:06PM 21.0428 12.0915 32° Northeast  Level Estimated
08:07PM 21.1442 12.1585 32° Northeast  Level Estimated
08:08PM 21.2456 12.2257 32° Northeast  Level Estimated
08:09PM 21.3470 12.2929 32° Northeast  Level Estimated
08:10PM 21.4483 12.3603 32° Northeast  Level Estimated
08:11PM 21.5496 12.4277 32° Northeast  Level Estimated
08:12PM 21.6509 12.4953 32° Northeast  Level Estimated
08:13PM 21.7522 12.5629 32° Northeast  Level Estimated
08:14PM 21.8534 12.6306 32° Northeast  Level Estimated
08:15PM 21.9546 12.6984 32° Northeast  Level Estimated
08:16PM 22.0558 12.7663 32° Northeast  Level Estimated
08:17PM 22.1569 12.8344 32° Northeast  Level Estimated
08:18PM 22.2581 12.9025 32° Northeast  Level Estimated
08:19PM 22.3592 12.9707 32° Northeast  Level Estimated
08:20PM 22.4602 13.0390 32° Northeast  Level Estimated
08:21PM 22.5613 13.1074 32° Northeast  Level Estimated
08:22PM 22.6623 13.1759 32° Northeast  Level Estimated
08:23PM 22.7633 13.2445 32° Northeast  Level Estimated
08:24PM 22.8642 13.3132 32° Northeast  Level Estimated
08:25PM 22.9651 13.3820 32° Northeast  Level Estimated
08:26PM 23.0660 13.4510 32° Northeast  Level Estimated
08:27PM 23.1669 13.5200 32° Northeast  Level Estimated
08:28PM 23.2677 13.5891 32° Northeast  Level Estimated
08:29PM 23.3685 13.6583 32° Northeast  Level Estimated
08:30PM 23.4693 13.7277 32° Northeast  Level Estimated
08:31PM 23.5700 13.7971 32° Northeast  Level Estimated
08:32PM 23.6707 13.8666 32° Northeast  Level Estimated
08:33PM 23.7714 13.9363 32° Northeast  Level Estimated
08:34PM 23.8720 14.0061 32° Northeast  Level Estimated
08:35PM 23.9726 14.0759 32° Northeast  Level Estimated
08:36PM 24.0732 14.1459 32° Northeast  Level Estimated
08:37PM 24.1738 14.2160 32° Northeast  Level Estimated
08:38PM 24.2743 14.2862 32° Northeast  Level Estimated
08:39PM 24.3748 14.3565 33° Northeast  Level Estimated
08:40PM 24.4752 14.4269 33° Northeast  Level Estimated
08:41PM 24.5756 14.4975 33° Northeast  Level Estimated
08:42PM 24.6760 14.5681 33° Northeast  Level Estimated
08:43PM 24.7764 14.6389 33° Northeast  Level Estimated
08:44PM 24.8767 14.7098 33° Northeast  Level Estimated
08:45PM 24.9770 14.7807 33° Northeast  Level Estimated
08:46PM 25.0772 14.8518 33° Northeast  Level Estimated
08:47PM 25.1775 14.9231 33° Northeast  Level Estimated
08:48PM 25.2776 14.9944 33° Northeast  Level Estimated
08:49PM 25.3778 15.0659 33° Northeast  Level Estimated
08:50PM 25.4779 15.1375 33° Northeast  Level Estimated
08:51PM 25.5780 15.2092 33° Northeast  Level Estimated
08:52PM 25.6780 15.2810 33° Northeast  Level Estimated
08:53PM 25.7780 15.3529 33° Northeast  Level Estimated
08:54PM 25.8780 15.4250 33° Northeast  Level Estimated
08:55PM 25.9780 15.4972 33° Northeast  Level Estimated
08:56PM 26.0779 15.5695 33° Northeast  Level Estimated
08:57PM 26.1777 15.6419 33° Northeast  Level Estimated
08:58PM 26.2776 15.7144 33° Northeast  Level Estimated
08:59PM 26.3774 15.7871 33° Northeast  Level Estimated
09:00PM 26.4771 15.8599 33° Northeast  Level Estimated
09:01PM 26.5768 15.9328 33° Northeast  Level Estimated
09:02PM 26.6765 16.0059 33° Northeast  Level Estimated
09:03PM 26.7762 16.0791 33° Northeast  Level Estimated
09:04PM 26.8758 16.1524 33° Northeast  Level Estimated
09:05PM 26.9753 16.2258 33° Northeast  Level Estimated
09:06PM 27.0749 16.2994 33° Northeast  Level Estimated
09:07PM 27.1744 16.3731 33° Northeast  Level Estimated
09:08PM 27.2738 16.4469 33° Northeast  Level Estimated
09:09PM 27.3732 16.5209 33° Northeast  Level Estimated
09:10PM 27.4726 16.5950 33° Northeast  Level Estimated
09:11PM 27.5720 16.6692 34° Northeast  Level Estimated
09:12PM 27.6713 16.7436 34° Northeast  Level Estimated
09:13PM 27.7705 16.8181 34° Northeast  Level Estimated
09:14PM 27.8697 16.8927 34° Northeast  Level Estimated
09:15PM 27.9689 16.9675 34° Northeast  Level Estimated
09:16PM 28.0681 17.0424 34° Northeast  Level Estimated
09:17PM 28.1672 17.1175 34° Northeast  Level Estimated
09:18PM 28.2662 17.1926 34° Northeast  Level Estimated
09:19PM 28.3652 17.2680 34° Northeast  Level Estimated
09:20PM 28.4642 17.3434 34° Northeast  Level Estimated
09:21PM 28.5632 17.4191 34° Northeast  Level Estimated
09:22PM 28.6620 17.4948 34° Northeast  Level Estimated
09:23PM 28.7609 17.5707 34° Northeast  Level Estimated
09:24PM 28.8597 17.6467 34° Northeast  Level Estimated
09:25PM 28.9585 17.7229 34° Northeast  Level Estimated
09:25PM 32.4280 12.1630 34° Northeast 501 577 37,000  Level FlightAware
09:26PM 29.0572 17.7992 34° Northeast  Level Estimated
09:26PM 32.5220 12.2150 25° Northeast 501 577 37,000  Level FlightAware
09:27PM 32.5980 12.2580 25° Northeast 501 577 37,000  Level FlightAware
09:27PM 32.6670 12.2960 25° Northeast 501 577 37,000  Level FlightAware
09:28PM 32.7780 12.3580 25° Northeast 502 578 37,000  Level FlightAware
09:29PM 32.8500 12.3980 25° Northeast 502 578 37,000  Level FlightAware
09:30PM 32.9590 12.4600 26° Northeast 502 578 37,000  Level FlightAware
09:30PM 33.0420 12.5070 25° Northeast 502 578 37,000  Level FlightAware
09:31PM 33.1080 12.5440 25° Northeast 502 578 37,000  Level FlightAware
09:32PM 33.2090 12.6010 25° Northeast 502 578 37,000  Level FlightAware
09:32PM 33.2820 12.6420 25° Northeast 501 577 37,000  Level FlightAware
09:33PM 33.3950 12.7060 25° Northeast 500 575 37,000  Level FlightAware
09:34PM 33.4740 12.7510 25° Northeast 500 575 37,000  Level FlightAware
09:34PM 33.5760 12.8090 25° Northeast 500 575 37,000  Level FlightAware
09:35PM 33.6670 12.8610 25° Northeast 500 575 37,000  Level FlightAware
09:36PM 33.7520 12.9100 26° Northeast 501 577 37,000  Level FlightAware
09:37PM 33.8340 12.9570 25° Northeast 502 578 37,000  Level FlightAware
09:37PM 33.9360 13.0160 26° Northeast 503 579 37,000  Level FlightAware
09:38PM 34.0300 13.0700 25° Northeast 504 580 37,000  Level FlightAware
09:39PM 34.1070 13.1150 26° Northeast 505 581 37,000  Level FlightAware
09:39PM 34.2050 13.1720 26° Northeast 506 582 37,000  Level FlightAware
09:40PM 34.2860 13.2340 32° Northeast 511 588 37,000  Level FlightAware
09:41PM 34.3640 13.3140 40° Northeast 509 586 37,000  Level FlightAware
09:42PM 34.4390 13.3920 41° Northeast 506 582 37,000  Level FlightAware
09:42PM 34.5100 13.4660 41° Northeast 505 581 37,000  Level FlightAware
09:43PM 34.5890 13.5500 41° Northeast 504 580 37,000  Level FlightAware
09:44PM 34.6640 13.6280 41° Northeast 503 579 37,000  Level FlightAware
09:44PM 34.7330 13.7000 41° Northeast 501 577 37,000  Level FlightAware
09:45PM 34.8070 13.7780 41° Northeast 501 577 37,000  Level FlightAware
09:46PM 34.8840 13.8600 41° Northeast 501 577 37,000  Level FlightAware
09:46PM 34.9430 13.9230 41° Northeast 501 577 37,000  Level FlightAware
09:47PM 35.0160 13.9990 40° Northeast 501 577 37,000  Level FlightAware
09:48PM 35.0930 14.0810 41° Northeast 502 578 37,000  Level FlightAware
09:48PM 35.1630 14.1560 41° Northeast 502 578 37,000  Level FlightAware
09:49PM 35.2360 14.2340 41° Northeast 502 578 37,000  Level FlightAware
09:50PM 35.3140 14.3180 41° Northeast 503 579 37,000  Level FlightAware
09:51PM 35.3870 14.3960 41° Northeast 503 579 37,000  Level FlightAware
09:51PM 35.4480 14.4620 41° Northeast 503 579 37,000  Level FlightAware
09:52PM 35.5190 14.5390 41° Northeast 505 581 37,000  Level FlightAware
09:53PM 35.5950 14.6210 41° Northeast 505 581 37,000  Level FlightAware
09:53PM 35.6580 14.6900 42° Northeast 506 582 37,000  Level FlightAware
09:54PM 35.7280 14.7650 41° Northeast 505 581 37,000  Level FlightAware
09:55PM 35.7980 14.8410 41° Northeast 506 582 37,000  Level FlightAware
09:55PM 35.8690 14.9190 42° Northeast 505 581 37,000  Level FlightAware
09:56PM 35.9450 15.0020 41° Northeast 505 581 37,000  Level FlightAware
09:57PM 36.0230 15.0870 41° Northeast 505 581 37,000  Level FlightAware
09:57PM 36.1000 15.1730 42° Northeast 504 580 37,000  Level FlightAware
09:58PM 36.1690 15.2480 41° Northeast 503 579 37,000  Level FlightAware
09:59PM 36.2300 15.3160 42° Northeast 503 579 37,000  Level FlightAware
09:59PM 36.3000 15.3940 42° Northeast 502 578 37,000  Level FlightAware
10:00PM 36.3730 15.4750 42° Northeast 502 578 37,000  Level FlightAware
10:01PM 36.4360 15.5450 42° Northeast 502 578 37,000  Level FlightAware
10:01PM 36.5020 15.6330 47° Northeast 505 581 37,000  Level FlightAware
10:02PM 36.5630 15.7210 49° Northeast 506 582 37,000  Level FlightAware
10:03PM 36.6320 15.8180 48° Northeast 506 582 37,000  Level FlightAware
10:03PM 36.6930 15.9060 49° Northeast 507 583 37,000  Level FlightAware
10:04PM 36.7610 16.0020 49° Northeast 508 585 37,000  Level FlightAware
10:05PM 36.8120 16.0750 49° Northeast 508 585 37,000  Level FlightAware
10:06PM 36.8890 16.1850 49° Northeast 508 585 37,000  Level FlightAware
10:06PM 36.9510 16.2750 49° Northeast 508 585 37,000  Level FlightAware
10:07PM 37.0200 16.3740 49° Northeast 509 586 37,000  Level FlightAware
10:08PM 37.0810 16.4620 49° Northeast 508 585 37,000  Level FlightAware
10:08PM 37.1480 16.5580 49° Northeast 507 583 37,000  Level FlightAware
10:09PM 37.2110 16.6500 49° Northeast 507 583 37,000  Level FlightAware
10:10PM 37.2690 16.7350 49° Northeast 505 581 37,000  Level FlightAware
10:10PM 37.3360 16.8330 49° Northeast 503 579 37,000  Level FlightAware
10:11PM 37.4040 16.9320 49° Northeast 501 577 37,000  Level FlightAware
10:12PM 37.4690 17.0270 49° Northeast 500 575 37,000  Level FlightAware
10:13PM 37.5430 17.1360 49° Northeast 498 573 37,000  Level FlightAware
10:14PM 37.6290 17.2640 50° Northeast 495 570 37,000  Level FlightAware
10:14PM 37.6920 17.3580 50° Northeast 488 562 37,000  Level FlightAware
10:15PM 37.7530 17.4490 50° Northeast 487 560 37,000  Level FlightAware
10:16PM 37.8080 17.5300 49° Northeast 493 567 37,000  Level FlightAware
10:16PM 37.8770 17.6330 50° Northeast 488 562 37,000  Level FlightAware
10:17PM 37.9370 17.7230 50° Northeast 496 571 37,000  Level FlightAware
10:18PM 38.0120 17.8370 50° Northeast 496 571 37,000  Level FlightAware
10:19PM 38.0820 17.9430 50° Northeast 499 574 37,000  Level FlightAware
10:19PM 38.1420 18.0330 50° Northeast 499 574 37,000  Level FlightAware
10:20PM 38.1930 18.1110 50° Northeast 499 574 37,000  Level FlightAware
10:21PM 38.2590 18.2120 50° Northeast 500 575 37,000  Level FlightAware
10:21PM 38.3160 18.2990 50° Northeast 499 574 37,000  Level FlightAware
10:22PM 38.3690 18.3800 50° Northeast 494 568 37,000  Level FlightAware
10:23PM 38.4380 18.4870 51° Northeast 480 552 37,000  Level FlightAware
10:24PM 38.5180 18.6090 50° Northeast 480 552 37,000  Level FlightAware
10:24PM 38.5670 18.6850 50° Northeast 479 551 37,000  Level FlightAware
10:25PM 38.6300 18.7830 51° Northeast 478 550 37,000  Level FlightAware
10:26PM 38.6860 18.8690 50° Northeast 478 550 37,000  Level FlightAware
10:26PM 38.7430 18.9580 51° Northeast 478 550 37,000  Level FlightAware
10:27PM 38.7980 19.0450 51° Northeast 479 551 37,000  Level FlightAware
10:28PM 38.8510 19.1290 51° Northeast 481 554 37,000  Level FlightAware
10:28PM 38.8940 19.2200 59° Northeast 490 564 37,000  Level FlightAware
10:29PM 38.9450 19.3360 60° Northeast 502 578 37,000  Level FlightAware
10:30PM 38.9900 19.4410 61° Northeast 505 581 37,000  Level FlightAware
10:30PM 39.0270 19.5260 61° Northeast 502 578 37,000  Level FlightAware
10:31PM 39.0740 19.6330 60° Northeast 488 562 37,000  Level FlightAware
10:32PM 39.1180 19.7340 61° Northeast 487 560 37,000  Level FlightAware
10:32PM 39.1690 19.8530 61° Northeast 487 560 37,000  Level FlightAware
10:33PM 39.2130 19.9540 61° Northeast 487 560 37,000  Level FlightAware
10:34PM 39.2620 20.0690 61° Northeast 487 560 37,000  Level FlightAware
10:35PM 39.3050 20.1680 61° Northeast 487 560 37,000  Level FlightAware
10:35PM 39.3440 20.2600 61° Northeast 488 562 37,000  Level FlightAware
10:36PM 39.3880 20.3640 61° Northeast 488 562 37,000  Level FlightAware
10:37PM 39.4360 20.4770 61° Northeast 487 560 37,000  Level FlightAware
10:37PM 39.4750 20.5680 61° Northeast 487 560 37,000  Level FlightAware
10:38PM 39.5170 20.6700 62° Northeast 487 560 37,000  Level FlightAware
10:39PM 39.5610 20.7740 61° Northeast 480 552 37,000  Level FlightAware
10:39PM 39.6000 20.8690 62° Northeast 472 543 37,000  Level FlightAware
10:40PM 39.6520 20.9930 61° Northeast 472 543 37,000  Level FlightAware
10:41PM 39.6920 21.0880 61° Northeast 472 543 37,000  Level FlightAware
10:41PM 39.7340 21.1900 62° Northeast 472 543 37,000  Level FlightAware
10:42PM 39.7810 21.3030 62° Northeast 481 554 37,000  Level FlightAware
10:43PM 39.8160 21.3890 62° Northeast 487 560 37,000  Level FlightAware
10:43PM 39.8600 21.4950 62° Northeast 498 573 37,000  Level FlightAware
10:44PM 39.9090 21.6150 62° Northeast 501 577 37,000  Level FlightAware
10:45PM 39.9470 21.7100 62° Northeast 502 578 37,000  Level FlightAware
10:45PM 39.9910 21.8180 62° Northeast 504 580 37,000  Level FlightAware
10:46PM 40.0350 21.9260 62° Northeast 503 579 37,000  Level FlightAware
10:47PM 40.0840 22.0480 62° Northeast 503 579 37,000  Level FlightAware
10:47PM 40.1240 22.1580 65° Northeast 510 587 37,000  Level FlightAware
10:48PM 40.1530 22.2930 74° East 513 590 37,000  Level FlightAware
10:49PM 40.1770 22.4120 75° East 513 590 37,000  Level FlightAware
10:49PM 40.1980 22.5170 75° East 513 590 37,000  Level FlightAware
10:50PM 40.2220 22.6390 76° East 515 593 37,000  Level FlightAware
10:51PM 40.2490 22.7740 75° East 516 594 37,000  Level FlightAware
10:51PM 40.2730 22.8930 75° East 516 594 37,000  Level FlightAware
10:52PM 40.3000 23.0300 75° East 515 593 37,000  Level FlightAware
10:53PM 40.3240 23.1500 75° East 515 593 37,000  Level FlightAware
10:54PM 40.3470 23.2710 76° East 512 589 37,000  Level FlightAware
10:54PM 40.3730 23.4070 76° East 512 589 37,000  Level FlightAware
10:55PM 40.3960 23.5270 76° East 512 589 37,000  Level FlightAware
10:56PM 40.4220 23.6620 76° East 512 589 37,000  Level FlightAware
10:56PM 40.4450 23.7840 76° East 510 587 37,000  Level FlightAware
10:57PM 40.4680 23.9040 76° East 511 588 37,000  Level FlightAware
10:58PM 40.4890 24.0170 76° East 37,000  Level FlightAware
10:59PM 40.5290 24.2370 76° East 37,000  Level FlightAware
11:00PM 40.5510 24.3540 76° East 508 585 37,000  Level FlightAware
11:00PM 40.5750 24.4900 77° East 508 585 37,000  Level FlightAware
11:01PM 40.5910 24.5820 77° East 508 585 37,000  Level FlightAware
11:02PM 40.6120 24.7050 77° East 508 585 37,000  Level FlightAware
11:02PM 40.6430 24.8610 75° East 511 588 37,000  Level FlightAware
11:03PM 40.6680 24.9960 76° East 511 588 37,000  Level FlightAware
11:04PM 40.6910 25.1300 77° East 513 590 37,000  Level FlightAware
11:05PM 40.7140 25.2530 76° East 513 590 37,000  Level FlightAware
11:05PM 40.7390 25.4030 78° East 511 588 37,000  Level FlightAware
11:06PM 40.7550 25.4980 77° East 511 588 37,000  Level FlightAware
11:07PM 40.7770 25.6220 77° East 511 588 37,000  Level FlightAware
11:07PM 40.8040 25.7860 78° East 511 588 37,000  Level FlightAware
11:08PM 40.8340 25.9630 77° East 512 589 37,000  Level FlightAware
11:09PM 40.8550 26.0880 77° East 514 592 37,000 -180 Level FlightAware
11:10PM 40.8790 26.2300 77° East 515 593 36,800 -1,020 Descending FlightAware
11:10PM 40.8870 26.3250 84° East 512 589 35,800 -1,800 Descending FlightAware
11:11PM 40.8940 26.4460 86° East 496 571 34,700 -1,680 Descending FlightAware
11:12PM 40.9020 26.5660 85° East 480 552 33,600 -1,680 Descending FlightAware
11:12PM 40.9080 26.6820 86° East 465 535 32,500 -1,680 Descending FlightAware
11:13PM 40.9150 26.7940 85° East 451 519 31,400 -1,860 Descending FlightAware
11:14PM 40.9220 26.9130 86° East 442 509 29,900 -2,040 Descending FlightAware
11:14PM 40.9320 27.0210 83° East 429 494 28,600 -2,220 Descending FlightAware
11:15PM 40.9460 27.1240 80° East 430 495 27,000 -2,580 Descending FlightAware
11:16PM 40.9610 27.2410 80° East 433 498 25,000 -2,520 Descending FlightAware
11:17PM 40.9750 27.3600 81° East 425 489 23,300 -2,040 Descending FlightAware
11:17PM 40.9880 27.4600 80° East 414 476 22,100 -1,980 Descending FlightAware
11:18PM 41.0000 27.5600 81° East 404 465 20,700 -1,980 Descending FlightAware
11:19PM 41.0130 27.6650 81° East 395 455 19,300 -2,100 Descending FlightAware
11:19PM 41.0270 27.7690 80° East 376 433 17,600 -2,280 Descending FlightAware
11:20PM 41.0360 27.8500 82° East 366 421 16,300 -1,680 Descending FlightAware
11:21PM 41.0460 27.9400 82° East 333 383 15,400 -1,440 Descending FlightAware
11:21PM 41.0540 28.0100 81° East 320 368 14,400 -1,800 Descending FlightAware
11:22PM 41.0660 28.0960 79° East 312 359 13,000 -1,500 Descending FlightAware
11:23PM 41.0930 28.1610 61° Northeast 292 336 12,300 -1,080 Descending FlightAware
11:23PM 41.1200 28.2180 58° Northeast 289 333 11,700 -1,080 Descending FlightAware
11:24PM 41.1250 28.2350 69° East 294 338 11,500 -1,200 Descending FlightAware
11:24PM 41.1190 28.2900 98° East 295 339 10,900 -1,140 Descending FlightAware
11:24PM 41.1060 28.3110 129° Southeast 285 328 10,700 -600 Descending FlightAware
11:25PM 41.0900 28.3250 147° Southeast 272 313 10,600 -1,440 Descending FlightAware
11:25PM 41.0440 28.3550 154° Southeast 275 316 9,400 -1,620 Descending FlightAware
11:26PM 41.0140 28.3740 154° Southeast 269 310 8,900 -1,320 Descending FlightAware
11:26PM 40.9800 28.3960 154° Southeast 267 307 8,200 -1,320 Descending FlightAware
11:27PM 40.9480 28.4150 156° South 262 302 7,600 -1,500 Descending FlightAware
11:27PM 40.9000 28.4060 188° South 251 289 6,500 -960 Descending FlightAware
11:28PM 40.8670 28.3740 216° Southwest 251 289 6,300 -900 Descending FlightAware
11:29PM 40.8430 28.3070 245° Southwest 246 283 5,300 -1,020 Descending FlightAware
11:30PM 40.7960 28.3330 157° South 217 250 4,800 -600 Descending FlightAware
11:30PM 40.7940 28.3440 104° East 215 247 4,700 -540 Descending FlightAware
11:30PM 40.7900 28.3780 99° East 215 247 4,500 -480 Descending FlightAware
11:31PM 40.7870 28.4060 98° East 208 239 4,300 -480 Descending FlightAware
11:31PM 40.7940 28.4350 72° East 189 217 4,100 -480 Descending FlightAware
11:31PM 40.8030 28.4650 68° East 179 206 3,900 -240 Descending FlightAware
11:32PM 40.8160 28.4900 56° Northeast 171 197 3,900  Level FlightAware
11:32PM 40.8310 28.5210 57° Northeast 168 193 3,900  Level FlightAware
11:33PM 40.8400 28.5390 57° Northeast 172 198 3,900  Level FlightAware
11:33PM 40.8530 28.5690 60° Northeast 182 209 3,900  Level FlightAware
11:34PM 40.8580 28.5780 54° Northeast 182 209 3,900 -540 Level FlightAware
11:34PM 40.8680 28.6010 60° Northeast 174 200 3,600 -900 Descending FlightAware
11:35PM 40.8890 28.6450 58° Northeast 171 197 2,900 -960 Descending FlightAware
11:35PM 40.8960 28.6600 58° Northeast 173 199 2,600 -900 Descending FlightAware
11:35PM 40.9030 28.6750 58° Northeast 175 201 2,400 -900 Descending FlightAware
11:36PM 40.9130 28.6970 59° Northeast 170 196 2,000 -900 Descending FlightAware
11:37PM 40.9350 28.7440 58° Northeast 133 153 1,200 -900 Descending FlightAware
11:37PM 40.9450 28.7650 58° Northeast 131 151 800 -720 Descending FlightAware
11:38PM 40.9570 28.7910 59° Northeast 132 152 400 -600 Descending FlightAware
11:41PM 40.9769 28.8211 49° Northeast  Level Estimated
11:42PM 40.9769 28.8211 21° North  Level Estimated
11:42PM 40.9760 28.8240 21° North 8 9  Level FlightAware
11:45PM 40.9769 28.8211 292° West  Level Estimated